Aviation Digital Data Service (ADDS)

Output produced by METARs form (1716 UTC 24 February 2017)
found at http://aviationweather.gov/adds/metars/
 
KCKB 241456Z 2415/2512 17005KT P6SM BKN080 
     FM241700 18009KT P6SM SCT100 
     FM242200 17011G20KT P6SM SCT090